Terminal Aerodrome Forecast
Issued by NWS

Home | Current Version | Previous Version | Text Only | Print | Product List | Glossary Off
Versions: 1 2 3 4 5 6 7 8 9 10 11 12 13 14 15 16 17

000
FTUS42 KMHX 201700
TAFISO
TAF
KISO 201720Z 2018/2118 03004KT P6SM -RA SCT012 BKN060
      TEMPO 2018/2019 BKN007 BKN012
     FM202200 03002KT P6SM BKN050
      AMD LTD TO CLD VIS AND WIND=

USA.gov is the U.S. government's official web portal to all federal, state and local government web resources and services.